Canungra, Queensland

11:40 AM AEST on July 07, 2015 (GMT +1000)
Bongaree Bribie Island | | Change Station
CLOSE
Current Station
Personal Weather Station
Location: Bongaree, QUEENSLAND
Elevation: 30 ft
Nearby Weather Stations

Elev 30 ft 27.09 °S, 153.17 °E | Updated 12 seconds ago

Clear
Clear
67.8 °F
Feels Like 67.8 °F
N
1.3
Wind Variable Wind from East
Gusts 2.5 mph

Today
High -- | Low -- °F
--% Chance of Precip.
Yesterday
High -- | Low -- °F
Precip. -- in
6:36 AM 5:06 PM
Waning Gibbous, 70% visible
Pressure 30.04 in
Visibility -9999.0 miles
Clouds
Dew Point 43 °F
Humidity 41%
Rainfall 0.00 in
Snow Depth Not available.
UV 4.0 out of 12
Pollen Not available.
Air Quality Not available.
Flu Activity Not available.
METAR YBBN 070130Z 21013KT CAVOK 20/02 Q1017

More Conditions Fewer Conditions

Pressure 30.04 in
Visibility -9999.0 miles
Clouds
Dew Point 43 °F
Humidity 41%
Rainfall 0.00 in
Snow Depth Not available.
UV 4.0 out of 12
Pollen Not available.
Air Quality Not available.
Flu Activity Not available.
METAR YBBN 070130Z 21013KT CAVOK 20/02 Q1017

More Conditions Fewer Conditions

10-Day Weather Forecast

×

Almanac

Astronomy

Jul. 07, 2015 Rise Set
Actual Time
Civil Twilight
Nautical Twilight
Astronomical Twilight
Moon
Length of Visible Light
Length of Day
Tomorrow will be .
, % of the Moon is Illuminated

Today's Extremes

Country Highs Country Lows

Community

WunderPhotos

Upload Photos

1,835,692 photos uploaded!

WunderBlogs® & News

Nearby

Air Quality

  Air Quality AQ Index Pollutant
Not available.

Snow Depth

Station Depth Elevation

Earthquake Activity

City Distance Mag. Time & Date
Minimum magnitude displayed is 2.5.

Coastal Water Temperatures

Place Temperature

Stations

Nearby Weather Stations

Station Location Temp. Windchill Dew Point Humidity Wind Precip. Elev Updated Type